Time;durP1;ratioP1;P1;durP2;ratioP2;P2;SDS_P1;SDS_P2;PMS_P1;PMS_P2;Temp;Humidity;BMP_temperature;BMP_pressure;BME280_temperature;BME280_humidity;BME280_pressure;Samples;Min_cycle;Max_cycle;Signal;HPM_P1;HPM_P2
2023/10/05 00:00:27;;;;;;;;;;;;;;;15.09;60.88;101422.78;5415867;32;35395;-82
2023/10/05 00:03:18;;;;;;;;;;;;;;;14.86;61.31;101430.78;5408014;32;34413;-83
2023/10/05 00:06:24;;;;;;;;;;;;;;;15.12;60.03;101425.28;5432043;32;33969;-82
2023/10/05 00:09:36;;;;;;;;;;;;;;;14.74;61.43;101439.22;5417953;32;34029;-82
2023/10/05 00:12:39;;;;;;;;;;;;;;;14.54;61.78;101440.84;5432320;32;34234;-82
2023/10/05 00:15:41;;;;;;;;;;;;;;;14.53;61.46;101436.50;5418795;32;33962;-83
2023/10/05 00:18:43;;;;;;;;;;;;;;;14.42;62.35;101441.28;5430095;32;34213;-82
2023/10/05 00:21:52;;;;;;;;;;;;;;;15.23;59.26;101439.88;5432701;32;34166;-81
2023/10/05 00:24:56;;;;;;;;;;;;;;;14.86;60.34;101447.53;5429049;32;35281;-81
2023/10/05 00:28:01;;;;;;;;;;;;;;;14.54;61.03;101443.50;5433873;32;34130;-81
2023/10/05 00:31:05;;;;;;;;;;;;;;;13.94;63.82;101447.50;5430873;32;36859;-82
2023/10/05 00:37:43;;;;;;;;;;;;;;;14.82;60.67;101445.09;5422026;32;34089;-81
2023/10/05 00:41:08;;;;;;;;;;;;;;;13.95;62.66;101441.31;5416101;32;34077;-82
2023/10/05 00:44:12;;;;;;;;;;;;;;;13.72;64.37;101441.28;5428912;32;34651;-80
2023/10/05 00:47:14;;;;;;;;;;;;;;;14.40;61.60;101423.78;5428331;32;36772;-80
2023/10/05 00:50:17;;;;;;;;;;;;;;;14.48;61.45;101424.38;5429853;32;34687;-82
2023/10/05 00:53:19;;;;;;;;;;;;;;;14.71;60.67;101437.56;5431639;32;34850;-82
2023/10/05 00:56:22;;;;;;;;;;;;;;;14.86;59.88;101420.19;5417803;32;34686;-83
2023/10/05 00:59:25;;;;;;;;;;;;;;;14.76;60.46;101434.75;5430075;32;35323;-81
2023/10/05 01:02:30;;;;;;;;;;;;;;;14.68;60.83;101428.88;5425943;32;34809;-81
2023/10/05 01:05:47;;;;;;;;;;;;;;;14.08;63.16;101426.72;5420318;32;35230;-81
2023/10/05 01:08:59;;;;;;;;;;;;;;;13.85;64.24;101431.09;5430425;32;34603;-80
2023/10/05 01:12:20;;;;;;;;;;;;;;;14.15;63.45;101429.13;5430553;32;34294;-81
2023/10/05 01:15:30;;;;;;;;;;;;;;;14.78;61.14;101425.81;5410789;32;33993;-81
2023/10/05 01:18:32;;;;;;;;;;;;;;;14.81;60.37;101408.94;5427335;32;33963;-81
2023/10/05 01:21:34;;;;;;;;;;;;;;;15.12;59.82;101421.78;5417284;32;34226;-81
2023/10/05 01:24:37;;;;;;;;;;;;;;;14.36;61.79;101425.66;5428995;32;34236;-81
2023/10/05 01:27:40;;;;;;;;;;;;;;;14.02;63.36;101420.78;5418795;32;34362;-81
2023/10/05 01:30:42;;;;;;;;;;;;;;;15.18;59.96;101413.59;5432163;32;34064;-80
2023/10/05 01:33:45;;;;;;;;;;;;;;;14.57;61.73;101414.31;5427921;32;34106;-79
2023/10/05 01:36:47;;;;;;;;;;;;;;;15.26;59.30;101415.91;5432136;32;34203;-82
2023/10/05 01:39:49;;;;;;;;;;;;;;;14.75;60.58;101411.81;5428808;32;35048;-80
2023/10/05 01:42:52;;;;;;;;;;;;;;;13.65;64.37;101413.31;5431686;32;35369;-81
2023/10/05 01:45:56;;;;;;;;;;;;;;;13.96;63.71;101411.31;5431462;32;35157;-81
2023/10/05 01:48:59;;;;;;;;;;;;;;;13.56;65.43;101409.25;5428268;32;35224;-80
2023/10/05 01:52:02;;;;;;;;;;;;;;;13.57;65.60;101402.19;5432323;32;36592;-81
2023/10/05 01:55:07;;;;;;;;;;;;;;;14.61;61.90;101401.81;5428846;32;33914;-81
2023/10/05 01:58:13;;;;;;;;;;;;;;;14.53;61.72;101402.09;5432384;32;34119;-80
2023/10/05 02:01:24;;;;;;;;;;;;;;;14.67;61.45;101409.50;5430269;32;33527;-83
2023/10/05 02:04:29;;;;;;;;;;;;;;;14.28;62.45;101412.75;5403923;32;34315;-82
2023/10/05 02:07:33;;;;;;;;;;;;;;;14.27;63.09;101410.16;5426744;32;36083;-82
2023/10/05 02:10:40;;;;;;;;;;;;;;;13.76;64.93;101422.59;5418469;32;34430;-82
2023/10/05 02:13:43;;;;;;;;;;;;;;;13.39;66.48;101430.06;5432061;32;34036;-81
2023/10/05 02:16:50;;;;;;;;;;;;;;;13.49;66.75;101421.81;5417343;32;33793;-82
2023/10/05 02:19:53;;;;;;;;;;;;;;;13.45;66.17;101412.25;5431018;32;33992;-81
2023/10/05 02:22:55;;;;;;;;;;;;;;;14.04;64.01;101395.19;5431269;32;35925;-81
2023/10/05 02:25:59;;;;;;;;;;;;;;;13.74;64.61;101389.25;5417273;32;33983;-81
2023/10/05 02:29:17;;;;;;;;;;;;;;;14.26;62.99;101398.72;5431307;32;34264;-82
2023/10/05 02:32:22;;;;;;;;;;;;;;;14.50;61.86;101393.44;5429946;32;35793;-81
2023/10/05 02:35:29;;;;;;;;;;;;;;;13.82;64.42;101388.03;5431716;32;34178;-83
2023/10/05 02:38:32;;;;;;;;;;;;;;;13.18;67.23;101386.78;5429594;32;34705;-83
2023/10/05 02:41:38;;;;;;;;;;;;;;;13.70;65.36;101387.62;5417960;32;33852;-83
2023/10/05 02:44:43;;;;;;;;;;;;;;;13.07;68.58;101386.25;5431242;32;35842;-82
2023/10/05 02:47:45;;;;;;;;;;;;;;;13.65;65.90;101384.28;5413233;32;34299;-81
2023/10/05 02:50:51;;;;;;;;;;;;;;;14.75;61.67;101380.97;5431593;32;35181;-80
2023/10/05 02:53:58;;;;;;;;;;;;;;;14.24;62.72;101383.84;5414481;32;34203;-82
2023/10/05 02:57:00;;;;;;;;;;;;;;;14.10;63.27;101384.34;5430188;32;35650;-80
2023/10/05 03:00:02;;;;;;;;;;;;;;;13.27;66.87;101386.50;5427582;32;34893;-81
2023/10/05 03:03:07;;;;;;;;;;;;;;;13.56;66.43;101382.84;5429802;32;35123;-83
2023/10/05 03:06:10;;;;;;;;;;;;;;;13.63;66.09;101378.19;5431611;32;35535;-82
2023/10/05 03:09:12;;;;;;;;;;;;;;;14.09;63.98;101380.84;5429099;32;34020;-82
2023/10/05 03:12:15;;;;;;;;;;;;;;;13.54;65.86;101387.31;5423168;32;33852;-82
2023/10/05 03:15:22;;;;;;;;;;;;;;;13.11;68.15;101394.03;5425955;32;34163;-83
2023/10/05 03:18:25;;;;;;;;;;;;;;;13.13;68.22;101401.88;5429709;32;34767;-84
2023/10/05 03:21:45;;;;;;;;;;;;;;;14.21;64.10;101398.03;5401395;32;34075;-81
2023/10/05 03:24:51;;;;;;;;;;;;;;;14.19;63.37;101393.72;5416778;32;33129;-81
2023/10/05 03:27:56;;;;;;;;;;;;;;;14.01;64.32;101390.84;5431742;32;34107;-81
2023/10/05 03:31:06;;;;;;;;;;;;;;;14.07;64.64;101400.34;5428771;32;34324;-82
2023/10/05 03:34:08;;;;;;;;;;;;;;;14.47;62.77;101383.84;5428843;32;34181;-82
2023/10/05 03:37:13;;;;;;;;;;;;;;;14.53;62.39;101402.09;5411971;32;34283;-84
2023/10/05 03:40:27;;;;;;;;;;;;;;;14.49;62.98;101399.63;5428988;32;35224;-83
2023/10/05 03:43:31;;;;;;;;;;;;;;;13.92;64.45;101409.72;5430145;32;35939;-82
2023/10/05 03:46:34;;;;;;;;;;;;;;;13.33;67.44;101417.97;5428810;32;33894;-81
2023/10/05 03:49:37;;;;;;;;;;;;;;;13.99;65.13;101420.91;5430498;32;34674;-81
2023/10/05 03:52:39;;;;;;;;;;;;;;;12.81;69.26;101424.91;5414055;32;33630;-82
2023/10/05 03:55:47;;;;;;;;;;;;;;;13.12;68.79;101416.00;5427270;32;34319;-80
2023/10/05 03:58:54;;;;;;;;;;;;;;;12.63;71.40;101412.34;5423358;32;34153;-80
2023/10/05 04:01:59;;;;;;;;;;;;;;;12.93;70.74;101403.41;5413854;32;33913;-81
2023/10/05 04:05:04;;;;;;;;;;;;;;;13.67;67.51;101408.88;5416831;32;36499;-80
2023/10/05 04:08:11;;;;;;;;;;;;;;;13.87;66.43;101406.37;5427163;32;35295;-82
2023/10/05 04:11:15;;;;;;;;;;;;;;;13.49;67.81;101399.81;5424181;32;34886;-82
2023/10/05 04:14:19;;;;;;;;;;;;;;;12.97;69.96;101401.56;5431365;32;34090;-80
2023/10/05 04:17:21;;;;;;;;;;;;;;;13.06;70.25;101405.66;5430513;32;35200;-81
2023/10/05 04:20:29;;;;;;;;;;;;;;;13.26;68.58;101406.72;5430875;32;34940;-81
2023/10/05 04:23:32;;;;;;;;;;;;;;;14.02;66.12;101416.37;5431204;32;34123;-80
2023/10/05 04:26:37;;;;;;;;;;;;;;;13.64;66.77;101411.59;5432606;32;34402;-81
2023/10/05 04:29:39;;;;;;;;;;;;;;;13.12;69.65;101413.37;5430439;32;35624;-82
2023/10/05 04:32:41;;;;;;;;;;;;;;;13.20;69.32;101408.69;5431391;32;35063;-82
2023/10/05 04:35:45;;;;;;;;;;;;;;;14.03;66.17;101414.56;5432779;32;34891;-81
2023/10/05 04:38:54;;;;;;;;;;;;;;;14.25;64.33;101419.94;5416920;32;33781;-81
2023/10/05 04:42:04;;;;;;;;;;;;;;;13.04;68.69;101415.41;5433339;32;35147;-80
2023/10/05 04:45:11;;;;;;;;;;;;;;;13.16;69.52;101425.56;5428755;32;34094;-81
2023/10/05 04:48:13;;;;;;;;;;;;;;;13.23;68.37;101422.69;5431307;32;34116;-84
2023/10/05 04:51:16;;;;;;;;;;;;;;;13.36;68.39;101411.72;5431427;32;34232;-83
2023/10/05 04:54:18;;;;;;;;;;;;;;;13.82;66.81;101437.37;5430028;32;34231;-82
2023/10/05 04:57:35;;;;;;;;;;;;;;;13.43;67.75;101431.72;5419812;32;33490;-82
2023/10/05 05:03:55;;;;;;;;;;;;;;;13.38;68.17;101446.84;5430888;32;34325;-80
2023/10/05 05:06:59;;;;;;;;;;;;;;;13.12;69.23;101443.25;5427742;32;34109;-80
2023/10/05 05:10:03;;;;;;;;;;;;;;;13.15;68.54;101450.25;5414800;32;35548;-80
2023/10/05 05:13:05;;;;;;;;;;;;;;;13.31;69.04;101447.97;5415662;32;34951;-81
2023/10/05 05:16:08;;;;;;;;;;;;;;;12.73;71.01;101455.94;5429848;32;34157;-81
2023/10/05 05:19:10;;;;;;;;;;;;;;;13.01;69.74;101461.25;5432056;32;33892;-83
2023/10/05 05:22:13;;;;;;;;;;;;;;;13.60;67.41;101461.06;5431454;32;34553;-82
2023/10/05 05:25:19;;;;;;;;;;;;;;;13.78;65.71;101451.59;5417228;32;33884;-81
2023/10/05 05:28:22;;;;;;;;;;;;;;;13.31;68.03;101455.88;5431727;32;34341;-80
2023/10/05 05:31:24;;;;;;;;;;;;;;;13.28;68.53;101449.81;5430301;32;36357;-81
2023/10/05 05:34:27;;;;;;;;;;;;;;;13.54;66.99;101441.00;5427472;32;35175;-82
2023/10/05 05:37:29;;;;;;;;;;;;;;;13.18;69.07;101452.75;5429403;32;34151;-82
2023/10/05 05:40:36;;;;;;;;;;;;;;;14.51;64.16;101456.87;5432768;32;34930;-80
2023/10/05 05:43:41;;;;;;;;;;;;;;;15.06;61.35;101456.44;5435230;32;36383;-86
2023/10/05 05:46:44;;;;;;;;;;;;;;;14.71;62.68;101450.78;5418512;32;35369;-89
2023/10/05 05:49:46;;;;;;;;;;;;;;;14.87;63.25;101448.38;5429853;32;34338;-88
2023/10/05 05:52:52;;;;;;;;;;;;;;;15.34;61.09;101443.81;5426966;32;33659;-86
2023/10/05 05:55:55;;;;;;;;;;;;;;;16.63;55.98;101432.75;5432720;32;32878;-84
2023/10/05 05:58:57;;;;;;;;;;;;;;;16.79;55.55;101445.25;5415173;32;34201;-83
2023/10/05 06:02:00;;;;;;;;;;;;;;;16.96;55.51;101447.09;5432817;32;34303;-83
2023/10/05 06:05:07;;;;;;;;;;;;;;;17.91;52.03;101430.78;5429127;32;34427;-81
2023/10/05 06:08:11;;;;;;;;;;;;;;;18.68;49.31;101428.34;5424983;32;34007;-81
2023/10/05 06:11:14;;;;;;;;;;;;;;;18.65;49.22;101428.47;5424254;32;34449;-83
2023/10/05 06:14:17;;;;;;;;;;;;;;;18.37;49.70;101432.69;5406285;32;33980;-82
2023/10/05 06:17:19;;;;;;;;;;;;;;;19.37;47.40;101438.50;5420943;32;34345;-84
2023/10/05 06:20:25;;;;;;;;;;;;;;;18.29;49.97;101428.69;5425195;32;34388;-86
2023/10/05 06:23:28;;;;;;;;;;;;;;;18.07;50.34;101434.34;5424291;32;33005;-81
2023/10/05 06:26:30;;;;;;;;;;;;;;;20.16;45.18;101426.66;5426397;32;34361;-82
2023/10/05 06:29:33;;;;;;;;;;;;;;;18.22;50.12;101430.84;5423874;32;35042;-79
2023/10/05 06:32:39;;;;;;;;;;;;;;;19.11;47.70;101425.88;5423906;32;35598;-79
2023/10/05 06:35:41;;;;;;;;;;;;;;;19.71;45.76;101425.88;5417286;32;33955;-80
2023/10/05 06:38:44;;;;;;;;;;;;;;;20.80;43.45;101419.84;5412524;32;33934;-81
2023/10/05 06:41:47;;;;;;;;;;;;;;;19.87;45.53;101423.97;5420632;32;34333;-82
2023/10/05 06:44:50;;;;;;;;;;;;;;;19.43;46.65;101424.81;5424423;32;33830;-85
2023/10/05 06:47:52;;;;;;;;;;;;;;;22.01;41.00;101420.53;5424250;32;33318;-83
2023/10/05 06:50:57;;;;;;;;;;;;;;;19.12;46.91;101424.91;5422723;32;34088;-79
2023/10/05 06:54:00;;;;;;;;;;;;;;;21.32;42.65;101413.78;5423615;32;34155;-78
2023/10/05 06:57:02;;;;;;;;;;;;;;;20.09;45.38;101426.16;5418054;32;265368;-77
2023/10/05 07:00:17;;;;;;;;;;;;;;;21.57;42.64;101410.25;5424812;32;34736;-77
2023/10/05 07:03:20;;;;;;;;;;;;;;;20.24;44.25;101419.03;5409809;32;34364;-78
2023/10/05 07:06:22;;;;;;;;;;;;;;;21.42;41.13;101420.19;5411060;32;35481;-79
2023/10/05 07:09:26;;;;;;;;;;;;;;;22.30;39.65;101407.78;5403582;32;34039;-77
2023/10/05 07:12:28;;;;;;;;;;;;;;;20.82;42.83;101409.94;5413698;32;35227;-79
2023/10/05 07:15:30;;;;;;;;;;;;;;;22.93;38.48;101405.88;5423315;32;34237;-81
2023/10/05 07:18:33;;;;;;;;;;;;;;;24.62;35.35;101407.81;5421489;32;33330;-79
2023/10/05 07:21:36;;;;;;;;;;;;;;;20.94;42.41;101418.97;5423499;32;34704;-86
2023/10/05 07:24:39;;;;;;;;;;;;;;;23.90;36.38;101410.06;5421422;32;34517;-80
2023/10/05 07:27:44;;;;;;;;;;;;;;;23.61;36.82;101413.19;5410321;32;34228;-80
2023/10/05 07:30:48;;;;;;;;;;;;;;;23.99;36.29;101406.63;5424595;32;34177;-79
2023/10/05 07:33:50;;;;;;;;;;;;;;;22.87;37.71;101411.69;5417878;32;35067;-79
2023/10/05 07:36:54;;;;;;;;;;;;;;;21.05;41.42;101414.59;5398908;32;35065;-80
2023/10/05 07:39:58;;;;;;;;;;;;;;;21.81;39.93;101400.53;5405233;32;34538;-78
2023/10/05 07:43:06;;;;;;;;;;;;;;;20.78;42.38;101419.97;5420679;32;34503;-80
2023/10/05 07:46:09;;;;;;;;;;;;;;;20.71;42.73;101407.13;5422454;32;33856;-81
2023/10/05 07:49:11;;;;;;;;;;;;;;;19.10;46.10;101418.81;5410674;32;36578;-80
2023/10/05 07:52:14;;;;;;;;;;;;;;;19.11;46.03;101413.41;5410849;32;34135;-82
2023/10/05 07:55:17;;;;;;;;;;;;;;;18.46;48.02;101410.00;5420859;32;35917;-81
2023/10/05 07:58:19;;;;;;;;;;;;;;;18.45;47.65;101423.41;5428967;32;35123;-78
2023/10/05 08:01:21;;;;;;;;;;;;;;;18.79;46.79;101404.59;5409249;32;34265;-83
2023/10/05 08:04:23;;;;;;;;;;;;;;;19.19;45.87;101424.50;5427276;32;35432;-83
2023/10/05 08:07:26;;;;;;;;;;;;;;;18.76;47.76;101427.91;5420827;32;34300;-80
2023/10/05 08:10:28;;;;;;;;;;;;;;;18.99;46.99;101423.91;5426590;32;34747;-84
2023/10/05 08:13:31;;;;;;;;;;;;;;;19.29;46.29;101427.47;5426869;32;35582;-82
2023/10/05 08:16:36;;;;;;;;;;;;;;;18.87;46.37;101425.47;5421904;32;36981;-78
2023/10/05 08:19:38;;;;;;;;;;;;;;;18.40;47.73;101429.84;5427214;32;34111;-83
2023/10/05 08:22:41;;;;;;;;;;;;;;;19.06;45.61;101425.25;5413150;32;34577;-82
2023/10/05 08:25:43;;;;;;;;;;;;;;;19.44;44.59;101426.53;5421642;32;35347;-81
2023/10/05 08:28:50;;;;;;;;;;;;;;;18.78;45.49;101421.53;5411660;32;34206;-79
2023/10/05 08:31:52;;;;;;;;;;;;;;;18.85;45.26;101414.06;5429212;32;35689;-80
2023/10/05 08:34:54;;;;;;;;;;;;;;;18.88;45.10;101416.56;5398892;32;34588;-83
2023/10/05 08:37:59;;;;;;;;;;;;;;;18.61;44.90;101421.59;5411931;32;37051;-81
2023/10/05 08:41:11;;;;;;;;;;;;;;;19.32;43.56;101413.97;5415111;32;34135;-82
2023/10/05 08:44:26;;;;;;;;;;;;;;;20.42;40.60;101406.31;5422963;32;34815;-84
2023/10/05 08:47:31;;;;;;;;;;;;;;;19.72;40.23;101412.44;5421575;32;34131;-82
2023/10/05 08:50:35;;;;;;;;;;;;;;;19.29;41.85;101422.12;5415125;32;34102;-84
2023/10/05 08:53:41;;;;;;;;;;;;;;;20.08;41.03;101420.91;5421241;32;34459;-79
2023/10/05 08:56:47;;;;;;;;;;;;;;;20.09;39.97;101395.94;5425269;32;35074;-80
2023/10/05 08:59:50;;;;;;;;;;;;;;;20.21;39.88;101405.84;5409493;32;35188;-79
2023/10/05 09:02:52;;;;;;;;;;;;;;;20.52;39.05;101402.97;5420764;32;34175;-78
2023/10/05 09:06:13;;;;;;;;;;;;;;;20.05;40.72;101408.62;5425206;32;35459;-79
2023/10/05 09:09:27;;;;;;;;;;;;;;;19.98;40.24;101405.50;5406977;32;34616;-78
2023/10/05 09:12:35;;;;;;;;;;;;;;;20.01;40.05;101397.28;5414535;32;35375;-81
2023/10/05 09:15:49;;;;;;;;;;;;;;;19.78;39.77;101399.69;5425405;32;34762;-83
2023/10/05 09:18:53;;;;;;;;;;;;;;;20.12;38.72;101377.94;5415416;32;35318;-80
2023/10/05 09:22:22;;;;;;;;;;;;;;;20.87;37.82;101380.25;5423510;32;34071;-77
2023/10/05 09:25:26;;;;;;;;;;;;;;;20.09;39.55;101388.78;5422619;32;35560;-79
2023/10/05 09:28:45;;;;;;;;;;;;;;;21.29;36.79;101373.84;5421288;32;33614;-78
2023/10/05 09:31:51;;;;;;;;;;;;;;;21.63;35.90;101370.56;5423558;32;34192;-79
2023/10/05 09:34:57;;;;;;;;;;;;;;;20.95;37.24;101373.44;5409846;32;34635;-81
2023/10/05 09:38:00;;;;;;;;;;;;;;;21.45;36.94;101368.31;5429336;32;34710;-85
2023/10/05 09:41:02;;;;;;;;;;;;;;;23.99;32.10;101359.16;5427935;32;35554;-80
2023/10/05 09:44:07;;;;;;;;;;;;;;;26.62;27.77;101352.78;5413462;32;34070;-77
2023/10/05 09:47:12;;;;;;;;;;;;;;;27.38;26.90;101350.19;5419988;32;34676;-77
2023/10/05 09:50:17;;;;;;;;;;;;;;;28.93;24.68;101335.03;5426146;32;35383;-78
2023/10/05 09:53:20;;;;;;;;;;;;;;;29.27;23.70;101329.72;5416314;32;34117;-76
2023/10/05 09:56:25;;;;;;;;;;;;;;;29.22;23.15;101337.44;5425663;32;34208;-76
2023/10/05 09:59:48;;;;;;;;;;;;;;;29.49;23.13;101329.16;5418633;32;34230;-82
2023/10/05 10:02:50;;;;;;;;;;;;;;;29.11;23.37;101330.44;5423564;32;34037;-81
2023/10/05 10:06:12;;;;;;;;;;;;;;;29.67;22.37;101326.41;5423329;32;35689;-80
2023/10/05 10:09:14;;;;;;;;;;;;;;;29.67;22.11;101321.00;5411494;32;34965;-81
2023/10/05 10:12:25;;;;;;;;;;;;;;;33.02;18.84;101305.00;5425278;32;34635;-87
2023/10/05 10:15:33;;;;;;;;;;;;;;;29.27;22.43;101308.06;5425955;32;34344;-84
2023/10/05 10:18:53;;;;;;;;;;;;;;;29.08;22.43;101311.81;5421184;32;34843;-81
2023/10/05 10:22:07;;;;;;;;;;;;;;;33.77;17.95;101295.88;5410992;32;34847;-79
2023/10/05 10:25:27;;;;;;;;;;;;;;;34.51;16.59;101288.34;5423391;32;33394;-86
2023/10/05 10:32:15;;;;;;;;;;;;;;;28.84;21.49;101279.97;5428568;32;35937;-81
2023/10/05 10:35:27;;;;;;;;;;;;;;;28.86;22.13;101281.53;5423744;32;33546;-81
2023/10/05 10:38:29;;;;;;;;;;;;;;;30.49;19.73;101273.34;5415974;32;33925;-83
2023/10/05 10:41:32;;;;;;;;;;;;;;;30.69;19.59;101269.31;5414183;32;35258;-86
2023/10/05 10:47:53;;;;;;;;;;;;;;;26.66;24.31;101269.75;5427035;32;34195;-82
2023/10/05 10:50:59;;;;;;;;;;;;;;;25.39;25.89;101268.59;5412894;32;34182;-83
2023/10/05 10:54:08;;;;;;;;;;;;;;;25.12;26.09;101255.72;5428145;32;34732;-80
2023/10/05 10:57:14;;;;;;;;;;;;;;;26.19;24.70;101240.78;5417094;32;35297;-79
2023/10/05 11:03:39;;;;;;;;;;;;;;;25.75;24.93;101238.56;5425685;32;35069;-82
2023/10/05 11:06:42;;;;;;;;;;;;;;;23.98;27.55;101239.31;5416273;32;34503;-77
2023/10/05 11:09:52;;;;;;;;;;;;;;;24.88;26.63;101235.41;5424424;32;34501;-79
2023/10/05 11:12:57;;;;;;;;;;;;;;;24.02;27.43;101221.97;5419316;32;35073;-82
2023/10/05 11:16:03;;;;;;;;;;;;;;;24.27;27.54;101226.16;5422386;32;34845;-78
2023/10/05 11:19:05;;;;;;;;;;;;;;;23.51;28.15;101221.69;5419047;32;34209;-77
2023/10/05 11:22:23;;;;;;;;;;;;;;;23.90;28.02;101216.78;5424110;32;34095;-78
2023/10/05 11:25:32;;;;;;;;;;;;;;;24.14;27.55;101222.78;5424829;32;33638;-79
2023/10/05 11:28:35;;;;;;;;;;;;;;;25.19;26.29;101215.69;5427910;32;34314;-80
2023/10/05 11:31:43;;;;;;;;;;;;;;;24.26;27.27;101216.37;5425111;32;33907;-83
2023/10/05 11:35:13;;;;;;;;;;;;;;;24.73;27.23;101203.50;5423909;32;35593;-80
2023/10/05 11:38:26;;;;;;;;;;;;;;;24.05;28.07;101213.66;5413382;32;34098;-80
2023/10/05 11:41:29;;;;;;;;;;;;;;;23.74;28.59;101201.91;5421742;32;37111;-80
2023/10/05 11:44:32;;;;;;;;;;;;;;;23.91;28.52;101197.84;5423197;32;34155;-83
2023/10/05 11:47:44;;;;;;;;;;;;;;;24.78;27.18;101190.50;5422430;32;33607;-82
2023/10/05 11:50:51;;;;;;;;;;;;;;;25.46;26.61;101190.00;5426285;32;34701;-80
2023/10/05 11:53:58;;;;;;;;;;;;;;;23.96;28.17;101184.91;5414325;32;34805;-80
2023/10/05 11:57:00;;;;;;;;;;;;;;;23.92;28.64;101178.06;5428859;32;35033;-76
2023/10/05 12:00:05;;;;;;;;;;;;;;;25.32;27.02;101178.63;5424660;32;35528;-78
2023/10/05 12:03:09;;;;;;;;;;;;;;;25.73;26.29;101165.16;5421288;32;35401;-82
2023/10/05 12:06:20;;;;;;;;;;;;;;;24.68;27.26;101167.25;5423699;32;34704;-80
2023/10/05 12:09:31;;;;;;;;;;;;;;;25.33;26.94;101163.34;5420993;32;35696;-79
2023/10/05 12:12:35;;;;;;;;;;;;;;;25.55;26.62;101163.09;5415290;32;35151;-80
2023/10/05 12:15:38;;;;;;;;;;;;;;;25.41;27.18;101165.34;5408264;32;34066;-81
2023/10/05 12:18:43;;;;;;;;;;;;;;;25.14;27.42;101161.44;5426309;27;35043;-80
2023/10/05 12:21:45;;;;;;;;;;;;;;;25.08;27.34;101149.37;5421147;32;34281;-72
2023/10/05 12:24:50;;;;;;;;;;;;;;;23.28;30.04;101163.66;5413589;32;37123;-76
2023/10/05 12:27:53;;;;;;;;;;;;;;;24.58;28.12;101159.09;5410820;32;35418;-71
2023/10/05 12:30:55;;;;;;;;;;;;;;;24.75;28.08;101155.81;5410446;32;34294;-77
2023/10/05 12:33:58;;;;;;;;;;;;;;;25.46;27.27;101134.34;5407769;32;34245;-72
2023/10/05 12:37:08;;;;;;;;;;;;;;;24.57;28.22;101134.06;5415582;32;36577;-70
2023/10/05 12:40:33;;;;;;;;;;;;;;;26.05;26.49;101130.75;5409739;32;34231;-76
2023/10/05 12:43:36;;;;;;;;;;;;;;;24.81;28.16;101124.87;5415684;32;35805;-77
2023/10/05 12:46:41;;;;;;;;;;;;;;;25.81;26.94;101128.47;5419546;32;34280;-71
2023/10/05 12:49:43;;;;;;;;;;;;;;;25.31;27.69;101123.12;5419395;32;33427;-74
2023/10/05 12:52:46;;;;;;;;;;;;;;;25.13;28.01;101132.84;5419021;32;35220;-73
2023/10/05 12:55:48;;;;;;;;;;;;;;;24.30;28.86;101118.47;5400665;32;34222;-74
2023/10/05 12:58:54;;;;;;;;;;;;;;;25.34;27.61;101122.00;5420271;32;34355;-74
2023/10/05 13:02:03;;;;;;;;;;;;;;;25.31;27.80;101123.12;5418686;32;34376;-77
2023/10/05 13:05:05;;;;;;;;;;;;;;;26.07;26.37;101117.97;5415184;32;35048;-79
2023/10/05 13:08:27;;;;;;;;;;;;;;;25.15;27.99;101121.94;5403833;32;34307;-75
2023/10/05 13:11:30;;;;;;;;;;;;;;;25.72;27.28;101114.97;5420588;32;34592;-71
2023/10/05 13:14:32;;;;;;;;;;;;;;;24.89;28.36;101110.75;5416410;32;34473;-74
2023/10/05 13:17:37;;;;;;;;;;;;;;;26.24;26.40;101102.09;5414641;32;34615;-78
2023/10/05 13:20:42;;;;;;;;;;;;;;;28.03;24.58;101094.44;5420762;32;35423;-82
2023/10/05 13:23:46;;;;;;;;;;;;;;;32.88;19.26;101075.25;5405781;32;35175;-73
2023/10/05 13:26:49;;;;;;;;;;;;;;;33.08;18.51;101070.91;5402828;32;34298;-85
2023/10/05 13:29:51;;;;;;;;;;;;;;;35.36;16.43;101063.31;5408334;32;34344;-75
2023/10/05 13:33:08;;;;;;;;;;;;;;;34.52;16.80;101068.13;5415674;32;36556;-82
2023/10/05 13:36:24;;;;;;;;;;;;;;;36.72;15.01;101057.47;5420420;32;34292;-69
2023/10/05 13:39:34;;;;;;;;;;;;;;;35.87;15.66;101060.03;5414986;32;33905;-73
2023/10/05 13:42:40;;;;;;;;;;;;;;;32.66;18.69;101052.56;5418228;32;35684;-75
2023/10/05 13:45:54;;;;;;;;;;;;;;;29.64;22.07;101066.72;5409208;32;35538;-82
2023/10/05 13:49:03;;;;;;;;;;;;;;;28.25;23.66;101063.34;5405332;32;37241;-77
2023/10/05 13:52:09;;;;;;;;;;;;;;;26.57;26.21;101068.44;5402702;32;34264;-68
2023/10/05 13:55:14;;;;;;;;;;;;;;;27.78;24.52;101065.50;5404344;32;37137;-69
2023/10/05 13:58:20;;;;;;;;;;;;;;;26.85;25.51;101067.44;5415464;32;35427;-82
2023/10/05 14:01:24;;;;;;;;;;;;;;;26.52;26.33;101062.62;5387034;32;35724;-73
2023/10/05 14:04:30;;;;;;;;;;;;;;;25.61;28.09;101070.19;5398579;32;34729;-67
2023/10/05 14:07:33;;;;;;;;;;;;;;;25.32;28.83;101064.78;5408107;32;34515;-66
2023/10/05 14:10:35;;;;;;;;;;;;;;;25.62;28.99;101061.97;5403421;32;35616;-70
2023/10/05 14:13:37;;;;;;;;;;;;;;;24.99;29.79;101061.41;5411503;32;34412;-80
2023/10/05 14:16:54;;;;;;;;;;;;;;;24.91;30.39;101052.31;5402782;32;34379;-74
2023/10/05 14:19:56;;;;;;;;;;;;;;;25.02;30.27;101058.44;5414309;32;35539;-74
2023/10/05 14:23:00;;;;;;;;;;;;;;;23.52;32.38;101057.03;5412560;32;33516;-74
2023/10/05 14:26:03;;;;;;;;;;;;;;;24.03;32.04;101051.84;5410943;32;35344;-71
2023/10/05 14:29:06;;;;;;;;;;;;;;;24.02;32.10;101047.47;5405779;32;34162;-72
2023/10/05 14:32:09;;;;;;;;;;;;;;;24.13;32.05;101057.25;5413585;32;35379;-65
2023/10/05 14:35:15;;;;;;;;;;;;;;;23.89;32.31;101046.78;5394266;32;35102;-72
2023/10/05 14:38:18;;;;;;;;;;;;;;;23.88;32.52;101058.50;5417188;32;35645;-64
2023/10/05 14:41:25;;;;;;;;;;;;;;;23.28;33.38;101053.69;5414099;32;34320;-65
2023/10/05 14:44:35;;;;;;;;;;;;;;;22.86;33.59;101048.09;5413510;32;34678;-71
2023/10/05 14:47:38;;;;;;;;;;;;;;;24.09;30.55;101046.91;5420001;32;34800;-71
2023/10/05 14:50:40;;;;;;;;;;;;;;;22.96;32.74;101046.44;5424341;32;34057;-72
2023/10/05 14:53:43;;;;;;;;;;;;;;;23.29;32.39;101048.19;5416794;32;34015;-71
2023/10/05 14:56:46;;;;;;;;;;;;;;;23.08;32.97;101045.44;5422506;32;34194;-65
2023/10/05 14:59:49;;;;;;;;;;;;;;;23.48;32.66;101052.91;5406604;32;34320;-64
2023/10/05 15:02:52;;;;;;;;;;;;;;;23.12;33.06;101046.91;5395087;32;35820;-65
2023/10/05 15:05:55;;;;;;;;;;;;;;;23.65;32.10;101046.16;5421911;32;34942;-73
2023/10/05 15:08:57;;;;;;;;;;;;;;;22.84;33.41;101045.56;5417420;32;35036;-67
2023/10/05 15:11:59;;;;;;;;;;;;;;;23.42;32.70;101046.19;5420771;32;34586;-66
2023/10/05 15:15:01;;;;;;;;;;;;;;;22.85;33.82;101049.09;5418817;32;36134;-66
2023/10/05 15:18:06;;;;;;;;;;;;;;;22.94;33.79;101043.03;5424552;32;34121;-65
2023/10/05 15:21:08;;;;;;;;;;;;;;;22.85;33.64;101041.03;5422895;32;35747;-67
2023/10/05 15:24:11;;;;;;;;;;;;;;;22.99;33.25;101046.16;5417369;32;35219;-65
2023/10/05 15:27:14;;;;;;;;;;;;;;;22.90;33.05;101042.41;5424065;32;34797;-67
2023/10/05 15:30:17;;;;;;;;;;;;;;;23.05;33.10;101039.47;5422083;32;35602;-66
2023/10/05 15:33:19;;;;;;;;;;;;;;;23.17;33.16;101035.78;5421836;32;36491;-72
2023/10/05 15:36:21;;;;;;;;;;;;;;;23.17;33.42;101044.69;5420024;32;34768;-66
2023/10/05 15:39:23;;;;;;;;;;;;;;;22.89;33.96;101040.72;5411865;32;35114;-66
2023/10/05 15:42:27;;;;;;;;;;;;;;;22.38;34.79;101037.63;5417222;32;34442;-66
2023/10/05 15:45:29;;;;;;;;;;;;;;;22.59;34.33;101038.62;5421949;32;34824;-66
2023/10/05 15:48:31;;;;;;;;;;;;;;;22.71;34.07;101047.50;5421209;32;34815;-74
2023/10/05 15:51:33;;;;;;;;;;;;;;;22.51;34.62;101049.09;5421735;32;34445;-73
2023/10/05 15:54:38;;;;;;;;;;;;;;;22.58;34.82;101052.97;5424462;32;34909;-66
2023/10/05 15:57:41;;;;;;;;;;;;;;;22.73;34.41;101050.06;5422141;32;35764;-66
2023/10/05 16:00:43;;;;;;;;;;;;;;;22.07;35.08;101053.34;5419208;32;34830;-65
2023/10/05 16:03:45;;;;;;;;;;;;;;;22.50;34.59;101055.41;5419300;32;36111;-72
2023/10/05 16:06:50;;;;;;;;;;;;;;;22.27;34.62;101045.66;5420065;32;34155;-72